Time;durP1;ratioP1;P1;durP2;ratioP2;P2;SDS_P1;SDS_P2;PMS_P1;PMS_P2;Temp;Humidity;BMP_temperature;BMP_pressure;BME280_temperature;BME280_humidity;BME280_pressure;Samples;Min_cycle;Max_cycle;Signal;HPM_P1;HPM_P2
2021/05/11 00:01:21;;;;;;;;;;;;;;;11.69;55.64;102021.28;1802876;80;20247;-69
2021/05/11 00:03:53;;;;;;;;;;;;;;;11.67;55.92;102012.33;1802600;78;20211;-70
2021/05/11 00:06:25;;;;;;;;;;;;;;;11.64;56.25;102014.20;1775029;80;20289;-66
2021/05/11 00:08:56;;;;;;;;;;;;;;;11.62;56.15;102009.95;1775322;80;20253;-69
2021/05/11 00:11:28;;;;;;;;;;;;;;;11.61;55.87;102014.66;1774726;80;20178;-66
2021/05/11 00:14:00;;;;;;;;;;;;;;;11.62;55.59;102010.78;1775356;80;20214;-70
2021/05/11 00:16:31;;;;;;;;;;;;;;;11.59;55.66;102009.87;1774425;80;20177;-64
2021/05/11 00:19:07;;;;;;;;;;;;;;;11.56;56.57;102013.08;1774851;80;20190;-70
2021/05/11 00:21:37;;;;;;;;;;;;;;;11.57;56.70;102009.77;1775467;80;20213;-68
2021/05/11 00:24:10;;;;;;;;;;;;;;;11.56;56.74;102008.91;1774569;80;20258;-64
2021/05/11 00:26:42;;;;;;;;;;;;;;;11.55;56.82;101998.88;1774200;79;20186;-68
2021/05/11 00:29:14;;;;;;;;;;;;;;;11.56;56.83;101997.78;1774154;79;20193;-67
2021/05/11 00:31:47;;;;;;;;;;;;;;;11.57;56.98;101994.47;1774541;80;20538;-67
2021/05/11 00:34:19;;;;;;;;;;;;;;;11.57;56.93;101996.69;1775075;81;20587;-68
2021/05/11 00:36:51;;;;;;;;;;;;;;;11.56;57.09;101995.00;1774228;79;20181;-71
2021/05/11 00:39:23;;;;;;;;;;;;;;;11.54;57.25;101987.45;1775836;80;20289;-70
2021/05/11 00:41:55;;;;;;;;;;;;;;;11.54;57.69;101991.62;1775288;80;20185;-70
2021/05/11 00:44:27;;;;;;;;;;;;;;;11.52;57.91;101988.23;1774367;80;20182;-71
2021/05/11 00:47:01;;;;;;;;;;;;;;;11.53;57.99;101987.67;1774958;80;20301;-71
2021/05/11 00:49:35;;;;;;;;;;;;;;;11.48;58.12;101981.43;1774556;80;20534;-68
2021/05/11 00:52:07;;;;;;;;;;;;;;;11.46;58.13;101976.66;1795875;79;20539;-68
2021/05/11 00:54:39;;;;;;;;;;;;;;;11.46;58.19;101977.18;1789319;79;20179;-67
2021/05/11 00:57:11;;;;;;;;;;;;;;;11.42;58.16;101974.55;1774685;81;20583;-65
2021/05/11 00:59:43;;;;;;;;;;;;;;;11.39;58.31;101966.17;1790022;79;20576;-70
2021/05/11 01:02:15;;;;;;;;;;;;;;;11.35;58.46;101959.89;1806203;79;20314;-68
2021/05/11 01:04:46;;;;;;;;;;;;;;;11.34;58.64;101954.89;1805024;79;20255;-70
2021/05/11 01:07:19;;;;;;;;;;;;;;;11.36;58.50;101955.50;1801487;79;20251;-67
2021/05/11 01:09:51;;;;;;;;;;;;;;;11.34;58.41;101950.72;1773657;81;20198;-71
2021/05/11 01:12:22;;;;;;;;;;;;;;;11.34;58.36;101950.72;1771615;81;20170;-67
2021/05/11 01:14:54;;;;;;;;;;;;;;;11.35;58.44;101948.77;1771715;81;20205;-67
2021/05/11 01:17:30;;;;;;;;;;;;;;;11.34;58.45;101946.55;1772202;81;20190;-70
2021/05/11 01:20:03;;;;;;;;;;;;;;;11.34;58.37;101945.69;1774694;81;20186;-70
2021/05/11 01:25:11;;;;;;;;;;;;;;;11.31;58.49;101951.17;1803118;79;20291;-68
2021/05/11 01:44:11;;;;;;;;;;;;;;;11.03;60.30;101939.80;1802852;79;20247;-70
2021/05/11 01:49:18;;;;;;;;;;;;;;;10.98;60.62;101939.64;1803064;78;20251;-74
2021/05/11 01:54:49;;;;;;;;;;;;;;;10.96;60.47;101927.89;1802966;80;20338;-69
2021/05/11 02:25:16;;;;;;;;;;;;;;;10.87;61.42;101899.27;1771046;80;20301;-70
2021/05/11 02:27:47;;;;;;;;;;;;;;;10.84;61.39;101896.44;1773669;80;20190;-72
2021/05/11 02:30:20;;;;;;;;;;;;;;;10.82;61.58;101892.20;1773202;79;20258;-69
2021/05/11 02:32:51;;;;;;;;;;;;;;;10.81;61.54;101897.42;1774991;79;20587;-71
2021/05/11 02:35:23;;;;;;;;;;;;;;;10.81;61.83;101895.50;1784337;79;20187;-66
2021/05/11 02:37:55;;;;;;;;;;;;;;;10.81;61.63;101898.28;1793842;79;20591;-70
2021/05/11 02:40:27;;;;;;;;;;;;;;;10.82;61.77;101897.75;1791027;79;20281;-67
2021/05/11 02:43:16;;;;;;;;;;;;;;;10.78;61.90;101893.20;1774256;80;20182;-68
2021/05/11 02:45:44;;;;;;;;;;;;;;;10.79;61.99;101896.81;1774432;80;20241;-69
2021/05/11 02:48:16;;;;;;;;;;;;;;;10.80;62.03;101891.03;1776102;79;20242;-70
2021/05/11 02:50:47;;;;;;;;;;;;;;;10.82;62.18;101897.20;1782089;79;20314;-70
2021/05/11 02:53:19;;;;;;;;;;;;;;;10.81;62.16;101896.03;1774928;79;20214;-71
2021/05/11 02:55:51;;;;;;;;;;;;;;;10.80;62.18;101892.42;1789321;79;20283;-69
2021/05/11 02:58:24;;;;;;;;;;;;;;;10.83;62.48;101907.22;1798910;79;20604;-69
2021/05/11 03:00:56;;;;;;;;;;;;;;;10.86;62.50;101904.52;1805954;79;20251;-66
2021/05/11 03:03:29;;;;;;;;;;;;;;;10.87;62.73;101905.69;1786822;79;20206;-71
2021/05/11 03:06:01;;;;;;;;;;;;;;;10.91;62.74;101906.06;1786856;80;20255;-68
2021/05/11 03:08:33;;;;;;;;;;;;;;;10.98;62.78;101916.55;1774230;79;20289;-64
2021/05/11 03:11:05;;;;;;;;;;;;;;;11.03;62.78;101916.18;1785748;79;20376;-65
2021/05/11 03:13:37;;;;;;;;;;;;;;;11.11;62.65;101909.42;1788827;79;20249;-69
2021/05/11 03:16:09;;;;;;;;;;;;;;;11.20;62.68;101913.04;1782166;79;20182;-71
2021/05/11 03:18:40;;;;;;;;;;;;;;;11.27;63.02;101913.83;1772334;81;20190;-66
2021/05/11 03:21:13;;;;;;;;;;;;;;;11.32;63.19;101901.42;1765365;81;20276;-70
2021/05/11 03:23:45;;;;;;;;;;;;;;;11.40;62.95;101903.03;1772978;81;20253;-70
2021/05/11 03:26:17;;;;;;;;;;;;;;;11.45;62.76;101895.70;1771661;81;20250;-67
2021/05/11 03:28:50;;;;;;;;;;;;;;;11.54;62.38;101904.53;1778008;80;20295;-69
2021/05/11 03:31:22;;;;;;;;;;;;;;;11.60;62.27;101903.08;1803443;78;20223;-71
2021/05/11 03:33:53;;;;;;;;;;;;;;;11.65;61.92;101903.75;1803867;79;20259;-73
2021/05/11 03:36:25;;;;;;;;;;;;;;;11.72;62.06;101900.32;1805777;79;20255;-70
2021/05/11 03:39:00;;;;;;;;;;;;;;;11.79;61.95;101904.70;1805897;79;20255;-72
2021/05/11 03:41:35;;;;;;;;;;;;;;;11.87;62.27;101902.13;1801726;78;20277;-67
2021/05/11 03:44:16;;;;;;;;;;;;;;;11.92;62.19;101903.09;1773463;81;20357;-71
2021/05/11 03:46:37;;;;;;;;;;;;;;;11.98;62.73;101900.73;1771582;80;20250;-71
2021/05/11 03:49:09;;;;;;;;;;;;;;;12.05;62.48;101898.69;1794416;79;20179;-70
2021/05/11 03:51:41;;;;;;;;;;;;;;;12.16;62.13;101894.23;1776642;79;20246;-67
2021/05/11 03:54:14;;;;;;;;;;;;;;;12.25;61.99;101903.38;1774710;80;20241;-70
2021/05/11 03:56:46;;;;;;;;;;;;;;;12.36;62.01;101896.11;1774626;81;20290;-73
2021/05/11 03:59:20;;;;;;;;;;;;;;;12.49;61.80;101900.89;1772330;81;20293;-72
2021/05/11 04:01:52;;;;;;;;;;;;;;;12.62;61.61;101888.09;1791449;78;20578;-69
2021/05/11 04:04:24;;;;;;;;;;;;;;;12.76;61.50;101888.12;1774331;81;20281;-71
2021/05/11 04:06:56;;;;;;;;;;;;;;;12.90;60.94;101897.89;1783761;79;20252;-68
2021/05/11 04:09:44;;;;;;;;;;;;;;;13.04;60.35;101884.03;1790582;79;20218;-68
2021/05/11 04:17:47;;;;;;;;;;;;;;;13.72;59.48;101880.61;1771353;81;20398;-86
2021/05/11 04:20:19;;;;;;;;;;;;;;;14.09;58.98;101880.41;1777429;80;20248;-70
2021/05/11 04:22:52;;;;;;;;;;;;;;;14.49;58.30;101871.27;1771558;81;20613;-70
2021/05/11 04:25:25;;;;;;;;;;;;;;;14.99;57.32;101871.13;1773397;79;20300;-71
2021/05/11 04:27:57;;;;;;;;;;;;;;;15.64;56.19;101860.13;1773551;81;20189;-69
2021/05/11 04:30:29;;;;;;;;;;;;;;;16.24;54.50;101865.72;1775090;80;20302;-70
2021/05/11 04:33:00;;;;;;;;;;;;;;;16.87;53.42;101858.55;1799995;79;20263;-67
2021/05/11 04:35:32;;;;;;;;;;;;;;;17.61;52.07;101865.56;1777140;79;20646;-69
2021/05/11 04:38:04;;;;;;;;;;;;;;;18.38;50.08;101857.73;1794382;79;20600;-71
2021/05/11 04:40:35;;;;;;;;;;;;;;;19.12;48.22;101861.45;1799254;79;20254;-69
2021/05/11 04:43:07;;;;;;;;;;;;;;;19.88;47.00;101855.64;1774621;79;20254;-70
2021/05/11 04:45:38;;;;;;;;;;;;;;;20.64;45.31;101852.43;1772051;81;20190;-70
2021/05/11 04:48:10;;;;;;;;;;;;;;;21.31;44.13;101857.84;1773864;79;20182;-71
2021/05/11 04:50:42;;;;;;;;;;;;;;;21.91;43.00;101856.13;1774477;81;20599;-73
2021/05/11 04:53:15;;;;;;;;;;;;;;;22.49;41.15;101857.42;1774363;79;20522;-73
2021/05/11 04:55:47;;;;;;;;;;;;;;;22.94;40.39;101858.79;1774157;81;20254;-70
2021/05/11 04:58:18;;;;;;;;;;;;;;;23.40;39.42;101868.02;1796236;80;20255;-70
2021/05/11 05:00:51;;;;;;;;;;;;;;;23.71;37.84;101869.59;1783585;80;20570;-72
2021/05/11 05:03:26;;;;;;;;;;;;;;;23.91;37.62;101864.31;1773950;79;20524;-70
2021/05/11 05:05:57;;;;;;;;;;;;;;;24.08;36.40;101865.84;1786066;79;20574;-72
2021/05/11 05:08:30;;;;;;;;;;;;;;;24.26;35.71;101872.52;1781695;79;20394;-72
2021/05/11 05:11:02;;;;;;;;;;;;;;;24.27;35.40;101867.91;1771736;81;20246;-70
2021/05/11 05:13:34;;;;;;;;;;;;;;;24.35;34.92;101877.66;1774501;81;20316;-81
2021/05/11 05:16:05;;;;;;;;;;;;;;;24.36;34.60;101879.34;1802297;78;20603;-70
2021/05/11 05:18:37;;;;;;;;;;;;;;;24.39;34.03;101873.84;1795668;78;20250;-72
2021/05/11 05:21:09;;;;;;;;;;;;;;;24.37;34.33;101869.64;1785602;79;20186;-73
2021/05/11 05:23:44;;;;;;;;;;;;;;;24.42;33.21;101870.94;1776750;79;20260;-74
2021/05/11 05:26:19;;;;;;;;;;;;;;;24.34;33.11;101865.48;1806661;79;20279;-72
2021/05/11 05:28:48;;;;;;;;;;;;;;;24.12;33.72;101854.69;1803099;79;20282;-72
2021/05/11 05:31:20;;;;;;;;;;;;;;;23.74;33.98;101849.93;1802926;80;20247;-72
2021/05/11 05:33:51;;;;;;;;;;;;;;;23.24;34.79;101850.24;1802950;80;20247;-73
2021/05/11 05:36:24;;;;;;;;;;;;;;;22.81;35.69;101843.19;1803260;78;20302;-74
2021/05/11 05:38:56;;;;;;;;;;;;;;;22.26;36.24;101839.97;1806027;79;20398;-72
2021/05/11 05:41:30;;;;;;;;;;;;;;;21.72;37.15;101832.11;1806000;78;20215;-72
2021/05/11 05:44:02;;;;;;;;;;;;;;;21.18;37.55;101845.88;1806068;79;20167;-71
2021/05/11 05:46:34;;;;;;;;;;;;;;;20.58;38.80;101831.60;1805912;78;20505;-71
2021/05/11 05:49:08;;;;;;;;;;;;;;;20.15;39.70;101836.28;1802934;80;20249;-72
2021/05/11 05:51:40;;;;;;;;;;;;;;;19.84;40.39;101838.20;1803315;79;20294;-73
2021/05/11 05:54:12;;;;;;;;;;;;;;;19.50;40.51;101835.34;1805628;79;20611;-74
2021/05/11 05:56:44;;;;;;;;;;;;;;;19.19;40.71;101840.03;1805078;79;20188;-75
2021/05/11 05:59:16;;;;;;;;;;;;;;;18.91;41.37;101841.53;1806578;79;20560;-71
2021/05/11 06:01:49;;;;;;;;;;;;;;;18.75;41.36;101839.92;1803673;79;20573;-72
2021/05/11 06:04:21;;;;;;;;;;;;;;;18.59;41.70;101833.22;1803905;78;20247;-71
2021/05/11 06:06:53;;;;;;;;;;;;;;;18.43;41.72;101835.23;1805652;79;20208;-72
2021/05/11 06:09:24;;;;;;;;;;;;;;;18.30;41.92;101825.09;1805699;79;20492;-72
2021/05/11 06:12:00;;;;;;;;;;;;;;;18.18;42.47;101828.77;1802894;80;20247;-71
2021/05/11 06:17:20;;;;;;;;;;;;;;;17.92;42.21;101833.55;1804504;79;20286;-74
2021/05/11 06:19:55;;;;;;;;;;;;;;;17.77;42.60;101827.09;1806013;79;20256;-73
2021/05/11 06:22:26;;;;;;;;;;;;;;;17.68;43.07;101819.77;1803656;79;20567;-72
2021/05/11 06:24:59;;;;;;;;;;;;;;;17.65;43.20;101815.27;1806305;79;20184;-75
2021/05/11 06:27:31;;;;;;;;;;;;;;;17.60;42.91;101813.31;1803082;80;20212;-73
2021/05/11 06:30:03;;;;;;;;;;;;;;;17.57;42.98;101810.22;1804600;79;20465;-74
2021/05/11 06:32:35;;;;;;;;;;;;;;;17.58;42.44;101816.97;1806150;79;20378;-72
2021/05/11 06:35:08;;;;;;;;;;;;;;;17.61;42.26;101816.98;1805800;79;20584;-73
2021/05/11 06:37:40;;;;;;;;;;;;;;;17.62;41.73;101811.05;1806273;79;20279;-72
2021/05/11 06:40:13;;;;;;;;;;;;;;;17.63;40.93;101805.71;1804998;79;20251;-72
2021/05/11 06:42:45;;;;;;;;;;;;;;;17.66;40.96;101815.55;1805443;79;20252;-70
2021/05/11 06:46:00;;;;;;;;;;;;;;;17.72;40.71;101813.03;1806028;79;20176;-73
2021/05/11 06:48:12;;;;;;;;;;;;;;;17.78;40.59;101809.09;1805960;79;20243;-72
2021/05/11 06:53:44;;;;;;;;;;;;;;;18.12;39.49;101798.97;1805023;79;20335;-72
2021/05/11 06:56:16;;;;;;;;;;;;;;;18.42;38.90;101786.28;1803077;80;20255;-72
2021/05/11 06:58:49;;;;;;;;;;;;;;;18.71;38.20;101790.13;1802977;80;20572;-71
2021/05/11 07:01:23;;;;;;;;;;;;;;;18.97;36.76;101795.33;1803032;78;20247;-72
2021/05/11 07:03:55;;;;;;;;;;;;;;;19.17;36.09;101784.53;1804668;78;20275;-74
2021/05/11 07:06:28;;;;;;;;;;;;;;;19.40;36.56;101790.35;1804081;79;20493;-72
2021/05/11 07:09:06;;;;;;;;;;;;;;;19.71;35.05;101798.84;1802984;78;20271;-72
2021/05/11 07:14:11;;;;;;;;;;;;;;;20.12;33.55;101788.08;1803155;80;20310;-74
2021/05/11 07:16:45;;;;;;;;;;;;;;;20.26;33.80;101787.09;1803125;80;20259;-74
2021/05/11 07:19:18;;;;;;;;;;;;;;;20.51;33.04;101787.36;1803093;80;20552;-73
2021/05/11 07:21:50;;;;;;;;;;;;;;;20.83;32.62;101789.80;1803068;79;20252;-72
2021/05/11 07:24:26;;;;;;;;;;;;;;;21.16;32.14;101792.22;1803117;80;20183;-72
2021/05/11 07:32:20;;;;;;;;;;;;;;;21.63;30.77;101780.77;1804647;79;20311;-71
2021/05/11 07:34:55;;;;;;;;;;;;;;;21.69;30.59;101772.50;1805865;79;20528;-73
2021/05/11 07:37:25;;;;;;;;;;;;;;;21.73;30.61;101776.37;1805888;79;20208;-72
2021/05/11 07:39:57;;;;;;;;;;;;;;;21.72;30.03;101767.06;1806139;79;20302;-72
2021/05/11 07:42:30;;;;;;;;;;;;;;;21.67;30.11;101764.31;1806426;79;20286;-73
2021/05/11 07:45:04;;;;;;;;;;;;;;;21.65;29.83;101765.73;1806942;79;20211;-72
2021/05/11 08:15:28;;;;;;;;;;;;;;;22.10;27.18;101726.75;1803670;78;20259;-73
2021/05/11 08:29:12;;;;;;;;;;;;;;;22.23;26.91;101706.12;1804959;79;20552;-74
2021/05/11 08:31:44;;;;;;;;;;;;;;;22.28;26.38;101704.61;1806262;79;20267;-73
2021/05/11 08:34:16;;;;;;;;;;;;;;;22.26;25.32;101699.84;1803591;79;20211;-72
2021/05/11 08:36:48;;;;;;;;;;;;;;;22.27;25.75;101690.20;1803105;79;20247;-73
2021/05/11 08:39:21;;;;;;;;;;;;;;;22.27;25.19;101683.12;1806346;78;20251;-73
2021/05/11 08:41:54;;;;;;;;;;;;;;;22.28;25.72;101679.13;1805841;79;20235;-73
2021/05/11 08:44:25;;;;;;;;;;;;;;;22.33;26.09;101670.55;1806110;79;20247;-75
2021/05/11 08:46:57;;;;;;;;;;;;;;;22.36;25.55;101670.75;1806142;79;20251;-73
2021/05/11 08:49:29;;;;;;;;;;;;;;;22.41;25.60;101670.65;1820130;79;20261;-75
2021/05/11 08:52:30;;;;;;;;;;;;;;;22.41;26.09;101657.91;1802049;79;20240;-73
2021/05/11 09:06:19;;;;;;;;;;;;;;;22.47;25.91;101645.34;1806440;78;20299;-74
2021/05/11 09:25:44;;;;;;;;;;;;;;;22.74;28.08;101616.14;1806238;79;20180;-72
2021/05/11 09:28:38;;;;;;;;;;;;;;;22.78;28.39;101608.66;1805106;79;20276;-72
2021/05/11 09:31:18;;;;;;;;;;;;;;;22.85;28.78;101614.16;1808521;78;20256;-72
2021/05/11 09:34:02;;;;;;;;;;;;;;;22.93;28.89;101611.97;1807823;79;20251;-74
2021/05/11 10:10:33;;;;;;;;;;;;;;;22.92;31.70;101574.05;1803226;80;20593;-73
2021/05/11 10:39:21;;;;;;;;;;;;;;;23.59;32.19;101533.98;1747517;79;20236;-76
2021/05/11 10:41:56;;;;;;;;;;;;;;;23.67;32.38;101524.69;1790923;79;20247;-71
2021/05/11 10:44:45;;;;;;;;;;;;;;;23.78;32.59;101523.81;1790520;79;20244;-74
2021/05/11 10:47:02;;;;;;;;;;;;;;;23.91;32.78;101525.72;1790020;80;20359;-72
2021/05/11 10:49:39;;;;;;;;;;;;;;;24.06;32.35;101526.66;1786455;80;20278;-71
2021/05/11 10:52:24;;;;;;;;;;;;;;;24.10;32.05;101527.69;1784067;79;20573;-72
2021/05/11 10:55:25;;;;;;;;;;;;;;;24.09;32.21;101524.60;1788303;80;20615;-71
2021/05/11 10:57:54;;;;;;;;;;;;;;;24.06;32.12;101522.41;1790605;79;20627;-71
2021/05/11 11:00:38;;;;;;;;;;;;;;;24.02;32.33;101525.08;1789444;78;20639;-72
2021/05/11 11:03:16;;;;;;;;;;;;;;;24.04;32.46;101520.49;1788316;80;20279;-72
2021/05/11 11:05:53;;;;;;;;;;;;;;;24.07;32.47;101512.75;1791601;79;20255;-74
2021/05/11 11:08:48;;;;;;;;;;;;;;;24.16;32.22;101507.91;1791142;79;20252;-75
2021/05/11 11:11:24;;;;;;;;;;;;;;;24.21;32.08;101504.92;1789038;79;20230;-73
2021/05/11 11:13:55;;;;;;;;;;;;;;;24.24;32.01;101500.83;1794564;79;20176;-73
2021/05/11 11:16:28;;;;;;;;;;;;;;;24.26;32.36;101509.03;1790402;79;20283;-72
2021/05/11 11:19:04;;;;;;;;;;;;;;;24.32;32.32;101509.12;1790790;79;20253;-72
2021/05/11 11:24:37;;;;;;;;;;;;;;;24.43;31.76;101508.45;1787293;79;20251;-73
2021/05/11 11:27:09;;;;;;;;;;;;;;;24.45;31.69;101501.02;1791449;79;20292;-75
2021/05/11 11:29:43;;;;;;;;;;;;;;;24.43;32.10;101501.34;1789390;79;20299;-74
2021/05/11 11:32:16;;;;;;;;;;;;;;;24.41;32.03;101499.44;1788187;78;20181;-75
2021/05/11 11:34:53;;;;;;;;;;;;;;;24.36;31.95;101500.16;1795759;78;20337;-72
2021/05/11 11:37:26;;;;;;;;;;;;;;;24.25;32.44;101485.46;1792378;79;20258;-74
2021/05/11 11:40:02;;;;;;;;;;;;;;;24.20;32.77;101477.70;1791216;79;20302;-72
2021/05/11 11:42:39;;;;;;;;;;;;;;;24.16;32.81;101480.94;1788757;79;20594;-75
2021/05/11 11:45:28;;;;;;;;;;;;;;;24.11;32.98;101475.41;1792245;79;20251;-73
2021/05/11 11:48:03;;;;;;;;;;;;;;;24.07;33.23;101470.17;1792702;79;20311;-74
2021/05/11 11:50:37;;;;;;;;;;;;;;;24.01;33.16;101460.95;1792830;79;20255;-74
2021/05/11 11:53:21;;;;;;;;;;;;;;;23.97;33.42;101471.89;1801451;79;20289;-74
2021/05/11 11:58:40;;;;;;;;;;;;;;;23.81;33.38;101467.23;1791514;79;20195;-74
2021/05/11 12:01:19;;;;;;;;;;;;;;;23.77;34.04;101463.97;1790510;79;20247;-73
2021/05/11 12:03:55;;;;;;;;;;;;;;;23.74;33.92;101456.11;1788794;79;20253;-70
2021/05/11 12:06:29;;;;;;;;;;;;;;;23.74;34.31;101467.45;1791436;79;20277;-72
2021/05/11 12:09:02;;;;;;;;;;;;;;;23.77;34.10;101458.30;1789473;79;20212;-74
2021/05/11 12:11:34;;;;;;;;;;;;;;;23.80;34.27;101453.37;1788267;79;20186;-70
2021/05/11 12:14:06;;;;;;;;;;;;;;;23.86;34.28;101452.05;1788383;79;20236;-71
2021/05/11 12:16:46;;;;;;;;;;;;;;;23.89;34.31;101445.76;1806794;79;20247;-71
2021/05/11 12:19:21;;;;;;;;;;;;;;;23.91;34.53;101447.10;1807109;79;20322;-72
2021/05/11 12:21:57;;;;;;;;;;;;;;;23.94;34.50;101445.58;1805525;79;20552;-72
2021/05/11 12:24:34;;;;;;;;;;;;;;;23.96;34.72;101449.76;1805537;79;20235;-72
2021/05/11 12:27:23;;;;;;;;;;;;;;;24.00;34.62;101438.58;1805447;79;20266;-73
2021/05/11 12:30:08;;;;;;;;;;;;;;;24.03;34.69;101432.25;1805405;79;20599;-72
2021/05/11 12:32:39;;;;;;;;;;;;;;;24.04;34.67;101429.66;1805046;79;20556;-73
2021/05/11 12:35:13;;;;;;;;;;;;;;;24.02;34.98;101433.42;1801295;78;20624;-74
2021/05/11 12:37:46;;;;;;;;;;;;;;;24.01;35.10;101418.98;1805050;79;20179;-72
2021/05/11 12:40:27;;;;;;;;;;;;;;;24.02;35.27;101427.75;1806424;79;20239;-75
2021/05/11 12:43:01;;;;;;;;;;;;;;;24.05;35.09;101417.13;1806788;79;20215;-76
2021/05/11 12:45:39;;;;;;;;;;;;;;;24.05;34.87;101415.14;1806760;79;20516;-71
2021/05/11 12:48:10;;;;;;;;;;;;;;;24.05;35.08;101409.47;1806025;78;20274;-73
2021/05/11 12:50:43;;;;;;;;;;;;;;;24.07;35.26;101402.05;1823209;78;20555;-72
2021/05/11 12:53:38;;;;;;;;;;;;;;;24.09;35.20;101409.02;1806995;79;20528;-73
2021/05/11 13:02:40;;;;;;;;;;;;;;;24.18;34.86;101397.67;1805800;79;20267;-71
2021/05/11 13:14:27;;;;;;;;;;;;;;;24.23;35.16;101380.48;1803597;79;20208;-77
2021/05/11 13:17:01;;;;;;;;;;;;;;;24.27;35.02;101378.05;1806281;78;20251;-72
2021/05/11 13:30:27;;;;;;;;;;;;;;;24.33;35.14;101363.92;1772075;81;20262;-75
2021/05/11 13:35:24;;;;;;;;;;;;;;;24.35;35.00;101369.28;1773800;81;20234;-73
2021/05/11 13:37:56;;;;;;;;;;;;;;;24.34;35.26;101363.35;1774254;81;20233;-71
2021/05/11 13:40:29;;;;;;;;;;;;;;;24.33;35.23;101368.80;1774282;81;20177;-74
2021/05/11 13:43:00;;;;;;;;;;;;;;;24.33;35.16;101358.85;1777646;79;20288;-74
2021/05/11 13:45:32;;;;;;;;;;;;;;;24.32;35.15;101368.55;1799375;79;20184;-73
2021/05/11 13:48:08;;;;;;;;;;;;;;;24.31;35.09;101360.59;1801770;80;20275;-73
2021/05/11 13:53:14;;;;;;;;;;;;;;;24.32;35.46;101359.42;1773416;81;20614;-74
2021/05/11 13:56:10;;;;;;;;;;;;;;;24.35;35.53;101350.82;1773089;81;20294;-73
2021/05/11 14:04:09;;;;;;;;;;;;;;;24.47;35.34;101346.14;1713610;82;20585;-79
2021/05/11 14:06:46;;;;;;;;;;;;;;;24.51;35.51;101342.03;1713591;82;20593;-79
2021/05/11 14:09:19;;;;;;;;;;;;;;;24.55;35.39;101341.01;1713756;84;20194;-77
2021/05/11 14:11:51;;;;;;;;;;;;;;;24.59;35.65;101338.36;1713591;82;20291;-77
2021/05/11 14:14:25;;;;;;;;;;;;;;;24.67;35.43;101339.76;1713611;82;20181;-77
2021/05/11 14:17:00;;;;;;;;;;;;;;;24.73;35.41;101327.61;1724381;82;20585;-76
2021/05/11 14:19:33;;;;;;;;;;;;;;;24.79;35.47;101333.35;1704881;84;20256;-77
2021/05/11 14:22:08;;;;;;;;;;;;;;;24.83;35.32;101324.41;1711439;83;20252;-76
2021/05/11 14:24:40;;;;;;;;;;;;;;;24.86;35.36;101322.32;1693060;83;20263;-75
2021/05/11 14:27:23;;;;;;;;;;;;;;;24.88;35.20;101321.38;1713019;82;20563;-76
2021/05/11 14:30:02;;;;;;;;;;;;;;;24.88;35.22;101321.38;1713437;83;20616;-76
2021/05/11 14:32:37;;;;;;;;;;;;;;;24.87;35.36;101321.95;1711052;82;20395;-74
2021/05/11 14:35:12;;;;;;;;;;;;;;;24.85;35.09;101322.05;1706885;82;20732;-74
2021/05/11 14:37:44;;;;;;;;;;;;;;;24.82;35.27;101312.80;1707015;82;20237;-74
2021/05/11 14:40:16;;;;;;;;;;;;;;;24.79;35.34;101317.72;1708420;82;20514;-77
2021/05/11 14:42:48;;;;;;;;;;;;;;;24.75;35.46;101316.76;1708726;82;20625;-74
2021/05/11 14:45:22;;;;;;;;;;;;;;;24.70;35.50;101304.15;1714816;82;20331;-76
2021/05/11 14:47:55;;;;;;;;;;;;;;;24.67;35.65;101300.55;1709871;83;20256;-75
2021/05/11 14:50:27;;;;;;;;;;;;;;;24.64;35.84;101294.14;1701022;84;20260;-75
2021/05/11 14:53:00;;;;;;;;;;;;;;;24.62;35.87;101299.34;1711677;84;20676;-76
2021/05/11 14:55:33;;;;;;;;;;;;;;;24.60;35.98;101298.25;1700196;82;20712;-73
2021/05/11 14:58:21;;;;;;;;;;;;;;;24.58;35.98;101289.81;1697224;82;20335;-71
2021/05/11 15:00:55;;;;;;;;;;;;;;;24.52;36.02;101289.15;1703460;80;20619;-74
2021/05/11 15:03:27;;;;;;;;;;;;;;;24.47;36.06;101285.06;1704531;83;20649;-74
2021/05/11 15:06:01;;;;;;;;;;;;;;;24.40;36.25;101283.91;1683163;83;20615;-73
2021/05/11 15:08:34;;;;;;;;;;;;;;;24.36;36.55;101283.75;1706068;83;20266;-72
2021/05/11 15:11:07;;;;;;;;;;;;;;;24.31;36.56;101283.11;1701513;83;20175;-73
2021/05/11 15:13:45;;;;;;;;;;;;;;;24.27;36.77;101280.69;1696534;83;20271;-73
2021/05/11 15:16:23;;;;;;;;;;;;;;;24.20;36.84;101276.93;1684055;84;20307;-74
2021/05/11 15:18:56;;;;;;;;;;;;;;;24.17;36.88;101275.35;1707767;84;20254;-73
2021/05/11 15:21:30;;;;;;;;;;;;;;;24.12;36.93;101271.27;1709641;82;20217;-74
2021/05/11 15:24:06;;;;;;;;;;;;;;;24.08;36.96;101270.29;1688472;84;20235;-74
2021/05/11 15:26:49;;;;;;;;;;;;;;;24.04;37.20;101272.13;1685530;84;20329;-73
2021/05/11 15:29:22;;;;;;;;;;;;;;;24.02;37.16;101267.37;1707326;83;20210;-77
2021/05/11 15:31:55;;;;;;;;;;;;;;;24.01;37.03;101272.81;1710361;83;20230;-75
2021/05/11 15:34:29;;;;;;;;;;;;;;;24.02;37.16;101268.19;1690420;83;20266;-75
2021/05/11 15:37:03;;;;;;;;;;;;;;;24.02;37.26;101264.54;1688087;83;20418;-73
2021/05/11 15:39:36;;;;;;;;;;;;;;;23.99;37.32;101262.36;1690050;83;20297;-76
2021/05/11 15:42:10;;;;;;;;;;;;;;;23.94;37.38;101268.20;1702660;83;20297;-74
2021/05/11 15:44:41;;;;;;;;;;;;;;;23.91;37.42;101266.89;1710200;83;20198;-74
2021/05/11 15:47:15;;;;;;;;;;;;;;;23.88;37.61;101269.54;1703869;83;20198;-76
2021/05/11 15:49:48;;;;;;;;;;;;;;;23.83;37.90;101264.84;1702754;83;20206;-73
2021/05/11 15:52:21;;;;;;;;;;;;;;;23.82;38.23;101266.59;1703179;83;20206;-78
2021/05/11 15:54:53;;;;;;;;;;;;;;;23.78;38.44;101268.45;1713366;83;20999;-74
2021/05/11 15:57:25;;;;;;;;;;;;;;;23.73;38.52;101265.77;1715623;83;20266;-76
2021/05/11 15:59:57;;;;;;;;;;;;;;;23.70;38.70;101272.09;1716225;83;20206;-75
2021/05/11 16:02:29;;;;;;;;;;;;;;;23.65;38.83;101262.36;1728715;82;20232;-74
2021/05/11 16:05:02;;;;;;;;;;;;;;;23.61;38.97;101268.44;1769492;80;20851;-76
2021/05/11 16:07:35;;;;;;;;;;;;;;;23.57;39.09;101260.34;1734785;80;20186;-75
2021/05/11 16:10:08;;;;;;;;;;;;;;;23.53;39.29;101260.17;1741308;82;20264;-75
2021/05/11 16:12:41;;;;;;;;;;;;;;;23.49;39.54;101259.19;1744385;81;20359;-74
2021/05/11 16:15:18;;;;;;;;;;;;;;;23.45;39.74;101260.16;1742895;82;20320;-76
2021/05/11 16:18:10;;;;;;;;;;;;;;;23.39;39.91;101260.08;1740449;82;20282;-74
2021/05/11 16:20:46;;;;;;;;;;;;;;;23.34;40.05;101262.50;1741209;82;20634;-77
2021/05/11 16:23:20;;;;;;;;;;;;;;;23.28;40.21;101259.57;1742864;82;20527;-76
2021/05/11 16:25:51;;;;;;;;;;;;;;;23.24;40.46;101261.98;1753824;80;20253;-77
2021/05/11 16:28:27;;;;;;;;;;;;;;;23.19;40.59;101260.16;1742959;81;20222;-76
2021/05/11 16:30:59;;;;;;;;;;;;;;;23.13;40.84;101256.34;1753269;81;20372;-76
2021/05/11 16:33:35;;;;;;;;;;;;;;;23.08;41.00;101253.66;1764061;80;20360;-78
2021/05/11 16:36:11;;;;;;;;;;;;;;;23.03;41.08;101263.76;1765043;81;20593;-73
2021/05/11 16:38:47;;;;;;;;;;;;;;;22.98;41.10;101260.47;1767334;81;20628;-75
2021/05/11 16:41:19;;;;;;;;;;;;;;;22.94;41.03;101260.05;1762843;81;20592;-75
2021/05/11 16:43:57;;;;;;;;;;;;;;;22.90;41.09;101256.19;1757612;81;20337;-77
2021/05/11 16:46:28;;;;;;;;;;;;;;;22.86;40.94;101254.59;1742666;82;20570;-74
2021/05/11 16:49:08;;;;;;;;;;;;;;;22.84;41.01;101253.25;1743394;82;20218;-77
2021/05/11 16:51:41;;;;;;;;;;;;;;;22.79;41.00;101250.59;1742013;82;20190;-75
2021/05/11 16:54:12;;;;;;;;;;;;;;;22.75;41.05;101255.23;1743351;82;20211;-75
2021/05/11 16:56:44;;;;;;;;;;;;;;;22.71;41.18;101245.72;1743436;82;20538;-75
2021/05/11 16:59:19;;;;;;;;;;;;;;;22.65;41.37;101244.19;1743276;82;20174;-75
2021/05/11 17:02:13;;;;;;;;;;;;;;;22.61;41.44;101253.11;1740554;82;20202;-77
2021/05/11 17:04:48;;;;;;;;;;;;;;;22.55;41.52;101257.25;1737083;80;20247;-77
2021/05/11 17:07:24;;;;;;;;;;;;;;;22.50;41.79;101261.03;1743629;82;20240;-76
2021/05/11 17:10:01;;;;;;;;;;;;;;;22.46;41.95;101287.50;1748739;82;20182;-75
2021/05/11 17:12:39;;;;;;;;;;;;;;;22.43;42.26;101280.48;1739927;82;20277;-77